Time;durP1;ratioP1;P1;durP2;ratioP2;P2;SDS_P1;SDS_P2;PMS_P1;PMS_P2;Temp;Humidity;BMP_temperature;BMP_pressure;BME280_temperature;BME280_humidity;BME280_pressure;Samples;Min_cycle;Max_cycle;Signal;HPM_P1;HPM_P2
2022/12/04 00:02:04;;;;;;;;;;;1.10;99.90;;;;;;5010521;28;160658;-70
2022/12/04 00:04:30;;;;;;;;;;;1.10;99.90;;;;;;5062589;28;19944;-70
2022/12/04 00:06:56;;;;;;;;;;;1.20;99.90;;;;;;5014609;28;213543;-70
2022/12/04 00:09:22;;;;;;;;;;;1.10;99.90;;;;;;5079316;28;20306;-69
2022/12/04 00:11:48;;;;;;;;;;;1.10;99.90;;;;;;5023303;28;209572;-69
2022/12/04 00:14:14;;;;;;;;;;;1.20;99.90;;;;;;5065505;28;20317;-71
2022/12/04 00:16:40;;;;;;;;;;;1.20;99.90;;;;;;5049606;28;207824;-69
2022/12/04 00:19:06;;;;;;;;;;;1.10;99.90;;;;;;5029396;28;150821;-69
2022/12/04 00:21:31;;;;;;;;;;;1.20;99.90;;;;;;5056393;28;19986;-69
2022/12/04 00:23:58;;;;;;;;;;;1.20;99.90;;;;;;5034070;28;207216;-69
2022/12/04 00:26:25;;;;;;;;;;;1.20;99.90;;;;;;5069155;28;19928;-69
2022/12/04 00:28:52;;;;;;;;;;;1.20;99.90;;;;;;5010544;28;207185;-69
2022/12/04 00:31:22;;;;;;;;;;;1.20;99.90;;;;;;5077273;28;19924;-69
2022/12/04 00:33:48;;;;;;;;;;;1.20;99.90;;;;;;5037156;28;119394;-69
2022/12/04 00:36:15;;;;;;;;;;;1.10;99.90;;;;;;5069731;28;19921;-70
2022/12/04 00:38:42;;;;;;;;;;;1.20;99.90;;;;;;4997524;28;209111;-69
2022/12/04 00:41:09;;;;;;;;;;;1.20;99.90;;;;;;5097917;28;19929;-69
2022/12/04 00:43:35;;;;;;;;;;;1.20;99.90;;;;;;5029405;27;206802;-70
2022/12/04 00:46:01;;;;;;;;;;;1.20;99.90;;;;;;5046368;28;19939;-69
2022/12/04 00:48:28;;;;;;;;;;;1.20;99.90;;;;;;5002171;28;221933;-70
2022/12/04 00:50:54;;;;;;;;;;;1.20;99.90;;;;;;5060646;28;20305;-70
2022/12/04 00:53:20;;;;;;;;;;;1.20;99.90;;;;;;5022046;28;117030;-69
2022/12/04 00:55:46;;;;;;;;;;;1.20;99.90;;;;;;5069613;28;19940;-70
2022/12/04 00:58:12;;;;;;;;;;;1.20;99.90;;;;;;5014246;28;207877;-70
2022/12/04 01:00:39;;;;;;;;;;;1.20;99.90;;;;;;5059775;28;20312;-70
2022/12/04 01:03:06;;;;;;;;;;;1.20;99.90;;;;;;5015059;28;206901;-69
2022/12/04 01:05:37;;;;;;;;;;;1.20;99.90;;;;;;5082755;28;19928;-69
2022/12/04 01:08:03;;;;;;;;;;;1.20;99.90;;;;;;5010515;28;209757;-70
2022/12/04 01:10:29;;;;;;;;;;;1.10;99.90;;;;;;5061659;28;20071;-69
2022/12/04 01:12:55;;;;;;;;;;;1.10;99.90;;;;;;5019082;28;214049;-69
2022/12/04 01:15:21;;;;;;;;;;;1.10;99.90;;;;;;5063937;28;19924;-69
2022/12/04 01:17:47;;;;;;;;;;;1.10;99.90;;;;;;5018473;28;207306;-69
2022/12/04 01:20:13;;;;;;;;;;;1.10;99.90;;;;;;5066853;27;20001;-69
2022/12/04 01:22:39;;;;;;;;;;;1.10;99.90;;;;;;5026743;28;233737;-70
2022/12/04 01:25:05;;;;;;;;;;;1.10;99.90;;;;;;5070123;28;20374;-70
2022/12/04 01:27:31;;;;;;;;;;;1.10;99.90;;;;;;5017772;28;207896;-69
2022/12/04 01:29:57;;;;;;;;;;;1.00;99.90;;;;;;5052585;28;19929;-69
2022/12/04 01:32:23;;;;;;;;;;;1.10;99.90;;;;;;5021213;28;207999;-69
2022/12/04 01:34:49;;;;;;;;;;;1.10;99.90;;;;;;5059220;28;19978;-69
2022/12/04 01:37:15;;;;;;;;;;;1.10;99.90;;;;;;5009621;28;205703;-70
2022/12/04 01:39:41;;;;;;;;;;;1.10;99.90;;;;;;5022799;28;20373;-70
2022/12/04 01:42:11;;;;;;;;;;;1.10;99.90;;;;;;5003611;28;151820;-68
2022/12/04 01:44:37;;;;;;;;;;;1.10;99.90;;;;;;5062357;28;19924;-70
2022/12/04 01:47:03;;;;;;;;;;;1.10;99.90;;;;;;5007296;28;115872;-70
2022/12/04 01:49:36;;;;;;;;;;;1.10;99.90;;;;;;5061533;28;19920;-70
2022/12/04 01:52:08;;;;;;;;;;;1.00;99.90;;;;;;5040072;28;206778;-70
2022/12/04 01:54:35;;;;;;;;;;;1.10;99.90;;;;;;5047893;28;19928;-70
2022/12/04 01:57:12;;;;;;;;;;;1.00;99.90;;;;;;5048267;27;207240;-71
2022/12/04 01:59:43;;;;;;;;;;;1.00;99.90;;;;;;5082760;28;19920;-70
2022/12/04 02:02:13;;;;;;;;;;;1.00;99.90;;;;;;5019537;28;234720;-70
2022/12/04 02:04:39;;;;;;;;;;;1.00;99.90;;;;;;5029208;28;20384;-70
2022/12/04 02:07:05;;;;;;;;;;;1.00;99.90;;;;;;5025653;28;204028;-70
2022/12/04 02:09:32;;;;;;;;;;;1.00;99.90;;;;;;5044805;28;19928;-70
2022/12/04 02:12:14;;;;;;;;;;;1.00;99.90;;;;;;5011003;27;207800;-70
2022/12/04 02:14:40;;;;;;;;;;;1.10;99.90;;;;;;5072905;28;20294;-70
2022/12/04 02:17:14;;;;;;;;;;;1.10;99.90;;;;;;5010543;28;197361;-70
2022/12/04 02:19:49;;;;;;;;;;;1.10;99.90;;;;;;5061916;28;20408;-70
2022/12/04 02:22:23;;;;;;;;;;;1.10;99.90;;;;;;5029789;28;208571;-70
2022/12/04 02:24:57;;;;;;;;;;;1.10;99.90;;;;;;5030518;28;19932;-70
2022/12/04 02:27:33;;;;;;;;;;;1.10;99.90;;;;;;5034654;27;199971;-70
2022/12/04 02:30:04;;;;;;;;;;;1.10;99.90;;;;;;5071684;28;19925;-70
2022/12/04 02:32:37;;;;;;;;;;;1.10;99.90;;;;;;5012814;28;184727;-70
2022/12/04 02:35:07;;;;;;;;;;;1.10;99.90;;;;;;5051901;28;19925;-70
2022/12/04 02:37:42;;;;;;;;;;;1.10;99.90;;;;;;5018871;28;200033;-70
2022/12/04 02:40:12;;;;;;;;;;;1.10;99.90;;;;;;5073725;28;20382;-70
2022/12/04 02:42:40;;;;;;;;;;;1.00;99.90;;;;;;5021981;28;208562;-70
2022/12/04 02:45:11;;;;;;;;;;;1.00;99.90;;;;;;5056458;28;19935;-70
2022/12/04 02:47:38;;;;;;;;;;;1.00;99.90;;;;;;4993905;28;151720;-70
2022/12/04 02:50:07;;;;;;;;;;;0.90;99.90;;;;;;5052444;28;19936;-69
2022/12/04 02:52:48;;;;;;;;;;;1.00;99.90;;;;;;5022518;28;206833;-70
2022/12/04 02:55:18;;;;;;;;;;;0.90;99.90;;;;;;5067999;28;19931;-70
2022/12/04 02:57:47;;;;;;;;;;;0.90;99.90;;;;;;5030735;28;218616;-70
2022/12/04 03:00:14;;;;;;;;;;;0.90;99.90;;;;;;5073720;28;19921;-69
2022/12/04 03:02:43;;;;;;;;;;;0.90;99.90;;;;;;5024708;28;149870;-69
2022/12/04 03:05:12;;;;;;;;;;;0.80;99.90;;;;;;5055835;28;19932;-70
2022/12/04 03:07:44;;;;;;;;;;;0.90;99.90;;;;;;5025397;28;207847;-70
2022/12/04 03:10:16;;;;;;;;;;;0.90;99.90;;;;;;5058074;28;19928;-70
2022/12/04 03:12:44;;;;;;;;;;;0.90;99.90;;;;;;5017713;28;208013;-70
2022/12/04 03:15:19;;;;;;;;;;;0.80;99.90;;;;;;5033950;28;19924;-70
2022/12/04 03:17:53;;;;;;;;;;;0.90;99.90;;;;;;5010210;28;196540;-70
2022/12/04 03:20:20;;;;;;;;;;;0.80;99.90;;;;;;5049922;28;19935;-69
2022/12/04 03:22:49;;;;;;;;;;;0.80;99.90;;;;;;5018982;28;207735;-70
2022/12/04 03:25:15;;;;;;;;;;;0.80;99.90;;;;;;5038147;28;19932;-69
2022/12/04 03:27:47;;;;;;;;;;;0.80;99.90;;;;;;5006081;28;152044;-68
2022/12/04 03:30:15;;;;;;;;;;;0.80;99.90;;;;;;5043449;28;19948;-70
2022/12/04 03:32:54;;;;;;;;;;;0.80;99.90;;;;;;5015156;28;154229;-69
2022/12/04 03:35:39;;;;;;;;;;;0.80;99.90;;;;;;5076352;28;19932;-69
2022/12/04 03:38:29;;;;;;;;;;;0.80;99.90;;;;;;5011777;28;209063;-70
2022/12/04 03:40:55;;;;;;;;;;;0.80;99.90;;;;;;5068385;28;19936;-69
2022/12/04 03:43:21;;;;;;;;;;;0.80;99.90;;;;;;4999291;28;217267;-69
2022/12/04 03:45:56;;;;;;;;;;;0.80;99.90;;;;;;5056385;28;20397;-69
2022/12/04 03:48:25;;;;;;;;;;;0.80;99.90;;;;;;5016025;28;210649;-69
2022/12/04 03:50:54;;;;;;;;;;;0.80;99.90;;;;;;5055805;28;19927;-69
2022/12/04 03:53:20;;;;;;;;;;;0.80;99.90;;;;;;5030721;28;132363;-70
2022/12/04 03:56:05;;;;;;;;;;;0.80;99.90;;;;;;5060102;28;19921;-70
2022/12/04 03:58:32;;;;;;;;;;;0.80;99.90;;;;;;4999334;28;204579;-69
2022/12/04 04:01:00;;;;;;;;;;;0.80;99.90;;;;;;5059525;28;19924;-69
2022/12/04 04:03:28;;;;;;;;;;;0.80;99.90;;;;;;5020349;28;206935;-69
2022/12/04 04:06:00;;;;;;;;;;;0.80;99.90;;;;;;5062233;28;19936;-70
2022/12/04 04:08:32;;;;;;;;;;;0.70;99.90;;;;;;5037442;27;199456;-69
2022/12/04 04:11:01;;;;;;;;;;;0.70;99.90;;;;;;5067530;28;19924;-69
2022/12/04 04:24:32;;;;;;;;;;;0.70;99.90;;;;;;5037810;28;19921;-69
2022/12/04 04:26:58;;;;;;;;;;;0.70;99.90;;;;;;4994185;27;210224;-69
2022/12/04 04:29:24;;;;;;;;;;;0.70;99.90;;;;;;5042122;28;19925;-69
2022/12/04 04:31:58;;;;;;;;;;;0.70;99.90;;;;;;5011477;27;212953;-69
2022/12/04 04:34:42;;;;;;;;;;;0.70;99.90;;;;;;5047852;28;19931;-70
2022/12/04 04:37:23;;;;;;;;;;;0.70;99.90;;;;;;5054653;27;102431;-70
2022/12/04 04:40:05;;;;;;;;;;;0.70;99.90;;;;;;5061751;28;19935;-70
2022/12/04 04:42:36;;;;;;;;;;;0.70;99.90;;;;;;5033218;28;127964;-69
2022/12/04 04:45:21;;;;;;;;;;;0.70;99.90;;;;;;5050672;28;19943;-70
2022/12/04 04:47:52;;;;;;;;;;;0.70;99.90;;;;;;5036409;28;178896;-70
2022/12/04 04:50:19;;;;;;;;;;;0.70;99.90;;;;;;5053124;28;19924;-69
2022/12/04 04:52:47;;;;;;;;;;;0.60;99.90;;;;;;5038850;27;211327;-70
2022/12/04 04:55:14;;;;;;;;;;;0.70;99.90;;;;;;5082044;28;19925;-69
2022/12/04 04:57:40;;;;;;;;;;;0.70;99.90;;;;;;5025407;28;188454;-70
2022/12/04 05:00:09;;;;;;;;;;;0.60;99.90;;;;;;5046575;28;19929;-70
2022/12/04 05:02:35;;;;;;;;;;;0.60;99.90;;;;;;5008183;28;207283;-70
2022/12/04 05:05:01;;;;;;;;;;;0.70;99.90;;;;;;5066379;28;19924;-70
2022/12/04 05:07:27;;;;;;;;;;;0.60;99.90;;;;;;5018131;28;207935;-70
2022/12/04 05:09:53;;;;;;;;;;;0.60;99.90;;;;;;5070806;28;19928;-69
2022/12/04 05:12:19;;;;;;;;;;;0.60;99.90;;;;;;5015162;28;205196;-70
2022/12/04 05:14:45;;;;;;;;;;;0.70;99.90;;;;;;5082125;28;20010;-69
2022/12/04 05:17:11;;;;;;;;;;;0.60;99.90;;;;;;5017205;27;215400;-69
2022/12/04 05:19:52;;;;;;;;;;;0.60;99.90;;;;;;5080625;28;19921;-69
2022/12/04 05:22:19;;;;;;;;;;;0.60;99.90;;;;;;5041609;28;208297;-69
2022/12/04 05:24:45;;;;;;;;;;;0.60;99.90;;;;;;5046916;28;19924;-70
2022/12/04 05:27:11;;;;;;;;;;;0.60;99.90;;;;;;5018982;28;206829;-70
2022/12/04 05:29:37;;;;;;;;;;;0.60;99.90;;;;;;5056426;28;19931;-70
2022/12/04 05:32:03;;;;;;;;;;;0.60;99.90;;;;;;5048531;28;139307;-69
2022/12/04 05:34:29;;;;;;;;;;;0.60;99.90;;;;;;5046272;28;20413;-70
2022/12/04 05:36:55;;;;;;;;;;;0.60;99.90;;;;;;5040055;28;209476;-69
2022/12/04 05:39:21;;;;;;;;;;;0.60;99.90;;;;;;5058333;28;20432;-69
2022/12/04 05:41:47;;;;;;;;;;;0.60;99.90;;;;;;5025847;28;225674;-70
2022/12/04 05:44:13;;;;;;;;;;;0.50;99.90;;;;;;5050682;28;19932;-69
2022/12/04 05:46:39;;;;;;;;;;;0.60;99.90;;;;;;5048557;28;208335;-70
2022/12/04 05:49:05;;;;;;;;;;;0.60;99.90;;;;;;5037274;28;56521;-70
2022/12/04 05:51:31;;;;;;;;;;;0.60;99.90;;;;;;5067843;28;19964;-69
2022/12/04 05:53:57;;;;;;;;;;;0.60;99.90;;;;;;4994024;28;156579;-70
2022/12/04 05:56:23;;;;;;;;;;;0.60;99.90;;;;;;5096866;28;19982;-70
2022/12/04 05:58:49;;;;;;;;;;;0.60;99.90;;;;;;5030051;28;211650;-70
2022/12/04 06:01:17;;;;;;;;;;;0.60;99.90;;;;;;5093710;28;19928;-69
2022/12/04 06:03:43;;;;;;;;;;;0.60;99.90;;;;;;4998103;28;198053;-69
2022/12/04 06:06:20;;;;;;;;;;;0.60;99.90;;;;;;5082275;28;20309;-69
2022/12/04 06:08:46;;;;;;;;;;;0.60;99.90;;;;;;5031406;28;142856;-70
2022/12/04 06:11:12;;;;;;;;;;;0.60;99.90;;;;;;5093270;28;19994;-69
2022/12/04 06:13:39;;;;;;;;;;;0.70;99.90;;;;;;5012784;28;207837;-69
2022/12/04 06:16:05;;;;;;;;;;;0.60;99.90;;;;;;5068974;28;20296;-70
2022/12/04 06:18:31;;;;;;;;;;;0.60;99.90;;;;;;5018620;28;217954;-69
2022/12/04 06:20:57;;;;;;;;;;;0.60;99.90;;;;;;5063872;28;19924;-70
2022/12/04 06:23:23;;;;;;;;;;;0.60;99.90;;;;;;5021906;28;154917;-70
2022/12/04 06:25:49;;;;;;;;;;;0.60;99.90;;;;;;5078467;28;20015;-70
2022/12/04 06:28:15;;;;;;;;;;;0.70;99.90;;;;;;5029504;28;209637;-70
2022/12/04 06:30:41;;;;;;;;;;;0.60;99.90;;;;;;5056885;28;19928;-69
2022/12/04 06:33:07;;;;;;;;;;;0.60;99.90;;;;;;5023617;28;172846;-70
2022/12/04 06:35:33;;;;;;;;;;;0.60;99.90;;;;;;5054796;28;19920;-70
2022/12/04 06:37:59;;;;;;;;;;;0.60;99.90;;;;;;5013769;28;196961;-70
2022/12/04 06:40:25;;;;;;;;;;;0.60;99.90;;;;;;5069485;28;19986;-69
2022/12/04 06:42:51;;;;;;;;;;;0.70;99.90;;;;;;5014591;28;209099;-70
2022/12/04 06:45:17;;;;;;;;;;;0.60;99.90;;;;;;5064586;28;19959;-70
2022/12/04 06:47:43;;;;;;;;;;;0.60;99.90;;;;;;5016008;28;199695;-70
2022/12/04 06:50:09;;;;;;;;;;;0.60;99.90;;;;;;5061400;28;19924;-70
2022/12/04 06:52:35;;;;;;;;;;;0.60;99.90;;;;;;5001817;28;189331;-69
2022/12/04 06:55:01;;;;;;;;;;;0.60;99.90;;;;;;5053297;28;19982;-69
2022/12/04 06:57:27;;;;;;;;;;;0.60;99.90;;;;;;5020247;28;212405;-70
2022/12/04 06:59:53;;;;;;;;;;;0.60;99.90;;;;;;5067858;28;20010;-70
2022/12/04 07:02:19;;;;;;;;;;;0.60;99.90;;;;;;5005937;28;208853;-69
2022/12/04 07:04:44;;;;;;;;;;;0.60;99.90;;;;;;5021894;28;19928;-70
2022/12/04 07:07:10;;;;;;;;;;;0.60;99.90;;;;;;5012626;28;182802;-70
2022/12/04 07:09:36;;;;;;;;;;;0.60;99.90;;;;;;5058927;28;19921;-70
2022/12/04 07:12:02;;;;;;;;;;;0.60;99.90;;;;;;5020998;28;94458;-71
2022/12/04 07:14:28;;;;;;;;;;;0.60;99.90;;;;;;5060104;28;20289;-70
2022/12/04 07:16:54;;;;;;;;;;;0.60;99.90;;;;;;5022343;28;207519;-70
2022/12/04 07:19:20;;;;;;;;;;;0.60;99.90;;;;;;5044965;28;19916;-70
2022/12/04 07:21:46;;;;;;;;;;;0.60;99.90;;;;;;5029807;28;211180;-70
2022/12/04 07:24:14;;;;;;;;;;;0.60;99.90;;;;;;5056542;28;20384;-70
2022/12/04 07:26:40;;;;;;;;;;;0.60;99.90;;;;;;5080242;28;207667;-70
2022/12/04 07:29:06;;;;;;;;;;;0.60;99.90;;;;;;5020597;28;146713;-71
2022/12/04 07:31:32;;;;;;;;;;;0.60;99.90;;;;;;5063015;28;19920;-70
2022/12/04 07:33:58;;;;;;;;;;;0.60;99.90;;;;;;4995758;28;136578;-70
2022/12/04 07:36:24;;;;;;;;;;;0.60;99.90;;;;;;5045959;28;20301;-69
2022/12/04 07:38:53;;;;;;;;;;;0.60;99.90;;;;;;5020225;28;141503;-69
2022/12/04 07:41:19;;;;;;;;;;;0.60;99.90;;;;;;5092216;27;19927;-70
2022/12/04 07:43:45;;;;;;;;;;;0.60;99.90;;;;;;5035823;28;211666;-70
2022/12/04 07:46:12;;;;;;;;;;;0.60;99.90;;;;;;5081581;28;19929;-69
2022/12/04 07:48:38;;;;;;;;;;;0.60;99.90;;;;;;5016945;28;206396;-70
2022/12/04 07:51:05;;;;;;;;;;;0.60;99.90;;;;;;5063952;28;19931;-69
2022/12/04 07:53:32;;;;;;;;;;;0.70;99.90;;;;;;5007613;28;147403;-69
2022/12/04 07:55:58;;;;;;;;;;;0.70;99.90;;;;;;5069953;28;19924;-69
2022/12/04 07:58:24;;;;;;;;;;;0.70;99.90;;;;;;5014185;28;211356;-69
2022/12/04 08:00:50;;;;;;;;;;;0.70;99.90;;;;;;5060369;28;19935;-69
2022/12/04 08:03:16;;;;;;;;;;;0.70;99.90;;;;;;4982685;28;140834;-69
2022/12/04 08:05:42;;;;;;;;;;;0.70;99.90;;;;;;5070308;28;21269;-69
2022/12/04 08:08:08;;;;;;;;;;;0.70;99.90;;;;;;5003496;28;208521;-68
2022/12/04 08:10:34;;;;;;;;;;;0.70;99.90;;;;;;5056065;28;20438;-69
2022/12/04 08:13:00;;;;;;;;;;;0.80;99.90;;;;;;5033063;27;209296;-69
2022/12/04 08:15:26;;;;;;;;;;;0.80;99.90;;;;;;5067883;28;19970;-69
2022/12/04 08:17:51;;;;;;;;;;;0.80;99.90;;;;;;5018941;28;162691;-69
2022/12/04 08:20:17;;;;;;;;;;;0.80;99.90;;;;;;5061293;28;19920;-69
2022/12/04 08:22:43;;;;;;;;;;;0.80;99.90;;;;;;5015880;28;101592;-69
2022/12/04 08:25:09;;;;;;;;;;;0.80;99.90;;;;;;5055335;28;20393;-70
2022/12/04 08:27:35;;;;;;;;;;;0.80;99.90;;;;;;5012606;28;208485;-70
2022/12/04 08:30:02;;;;;;;;;;;0.80;99.90;;;;;;5052760;28;20425;-69
2022/12/04 08:32:28;;;;;;;;;;;0.80;99.90;;;;;;5040170;28;160849;-71
2022/12/04 08:34:54;;;;;;;;;;;0.80;99.90;;;;;;5087966;28;19920;-69
2022/12/04 08:37:19;;;;;;;;;;;0.80;99.90;;;;;;5019124;28;205744;-69
2022/12/04 08:39:45;;;;;;;;;;;0.80;99.90;;;;;;5076295;28;19948;-69
2022/12/04 08:42:11;;;;;;;;;;;0.80;99.90;;;;;;5013901;28;202808;-69
2022/12/04 08:44:37;;;;;;;;;;;0.80;99.90;;;;;;5062122;28;20022;-68
2022/12/04 08:47:03;;;;;;;;;;;0.80;99.90;;;;;;5009695;28;208179;-70
2022/12/04 08:49:29;;;;;;;;;;;0.80;99.90;;;;;;5049187;28;19925;-69
2022/12/04 08:51:55;;;;;;;;;;;0.90;99.90;;;;;;5015542;28;207577;-69
2022/12/04 08:54:21;;;;;;;;;;;0.90;99.90;;;;;;5063177;28;19928;-70
2022/12/04 08:56:47;;;;;;;;;;;0.90;99.90;;;;;;5063221;28;208284;-69
2022/12/04 08:59:13;;;;;;;;;;;0.90;99.90;;;;;;5074711;28;20595;-69
2022/12/04 09:01:39;;;;;;;;;;;0.90;99.90;;;;;;5057836;28;214549;-69
2022/12/04 09:04:05;;;;;;;;;;;1.00;99.90;;;;;;4979776;28;97974;-69
2022/12/04 09:06:31;;;;;;;;;;;1.00;99.90;;;;;;5067034;28;19939;-69
2022/12/04 09:08:57;;;;;;;;;;;1.00;99.90;;;;;;4996414;28;173761;-69
2022/12/04 09:11:24;;;;;;;;;;;1.00;99.90;;;;;;5067109;28;19971;-69
2022/12/04 09:13:50;;;;;;;;;;;1.00;99.90;;;;;;5030517;28;207617;-69
2022/12/04 09:16:18;;;;;;;;;;;1.00;99.90;;;;;;5066335;28;20688;-69
2022/12/04 09:18:44;;;;;;;;;;;1.00;99.90;;;;;;5055563;28;137284;-69
2022/12/04 09:21:11;;;;;;;;;;;1.10;99.90;;;;;;5072189;28;19924;-69
2022/12/04 09:23:38;;;;;;;;;;;1.10;99.90;;;;;;5007169;28;214273;-69
2022/12/04 09:26:05;;;;;;;;;;;1.10;99.90;;;;;;5071555;28;20380;-70
2022/12/04 09:28:31;;;;;;;;;;;1.10;99.90;;;;;;5001723;28;212417;-70
2022/12/04 09:30:58;;;;;;;;;;;1.10;99.90;;;;;;5092828;27;20297;-69
2022/12/04 09:33:24;;;;;;;;;;;1.20;99.90;;;;;;5026132;27;201554;-70
2022/12/04 09:35:50;;;;;;;;;;;1.20;99.90;;;;;;5078501;28;19939;-69
2022/12/04 09:38:16;;;;;;;;;;;1.20;99.90;;;;;;5027809;28;148477;-69
2022/12/04 09:40:51;;;;;;;;;;;1.20;99.90;;;;;;5063183;28;19975;-69
2022/12/04 09:43:25;;;;;;;;;;;1.30;99.90;;;;;;5031981;27;92494;-70
2022/12/04 09:45:53;;;;;;;;;;;1.30;99.90;;;;;;5065778;28;19924;-70
2022/12/04 09:48:21;;;;;;;;;;;1.30;99.90;;;;;;5005982;28;206149;-70
2022/12/04 09:50:47;;;;;;;;;;;1.30;99.90;;;;;;5058055;28;19924;-70
2022/12/04 09:53:25;;;;;;;;;;;1.40;99.90;;;;;;5026328;28;211453;-70
2022/12/04 09:55:57;;;;;;;;;;;1.40;99.90;;;;;;5067460;28;19925;-69
2022/12/04 09:58:40;;;;;;;;;;;1.40;99.90;;;;;;5006347;28;197374;-69
2022/12/04 10:01:15;;;;;;;;;;;1.50;99.90;;;;;;5092808;28;19932;-69
2022/12/04 10:03:41;;;;;;;;;;;1.50;99.90;;;;;;4988599;28;115920;-70
2022/12/04 10:06:07;;;;;;;;;;;1.50;99.90;;;;;;5095130;27;19967;-69
2022/12/04 10:08:39;;;;;;;;;;;1.50;99.90;;;;;;5009061;28;97853;-70
2022/12/04 10:11:23;;;;;;;;;;;1.60;99.90;;;;;;5061258;28;19928;-70
2022/12/04 10:13:49;;;;;;;;;;;1.60;99.90;;;;;;5025678;28;206889;-70
2022/12/04 10:16:23;;;;;;;;;;;1.60;99.90;;;;;;5065599;28;19983;-69
2022/12/04 10:18:59;;;;;;;;;;;1.60;99.90;;;;;;4993632;28;209619;-69
2022/12/04 10:21:30;;;;;;;;;;;1.70;99.90;;;;;;5063727;28;19928;-70
2022/12/04 10:23:59;;;;;;;;;;;1.70;99.90;;;;;;5009319;28;214723;-69
2022/12/04 10:26:31;;;;;;;;;;;1.70;99.90;;;;;;5067849;28;19932;-69
2022/12/04 10:28:59;;;;;;;;;;;1.80;99.90;;;;;;5014482;28;124892;-69
2022/12/04 10:31:26;;;;;;;;;;;1.80;99.90;;;;;;5065055;28;20305;-70
2022/12/04 10:33:54;;;;;;;;;;;1.90;99.90;;;;;;4998808;28;116019;-70
2022/12/04 10:36:22;;;;;;;;;;;1.90;99.90;;;;;;5064422;28;19928;-70
2022/12/04 10:38:57;;;;;;;;;;;1.90;99.90;;;;;;5015487;28;206442;-70
2022/12/04 10:41:41;;;;;;;;;;;2.00;99.90;;;;;;5066901;28;19928;-69
2022/12/04 10:44:12;;;;;;;;;;;2.00;99.90;;;;;;5024007;28;206466;-71
2022/12/04 10:46:39;;;;;;;;;;;2.10;99.90;;;;;;5045811;28;212750;-71
2022/12/04 10:49:08;;;;;;;;;;;2.10;99.90;;;;;;5027270;28;127636;-71
2022/12/04 10:51:39;;;;;;;;;;;2.10;99.90;;;;;;5067875;28;19943;-68
2022/12/04 10:54:28;;;;;;;;;;;2.20;99.90;;;;;;5002041;28;173184;-70
2022/12/04 10:56:58;;;;;;;;;;;2.20;99.90;;;;;;4977465;28;100550;-70
2022/12/04 10:59:24;;;;;;;;;;;2.30;99.90;;;;;;5041139;28;19921;-69
2022/12/04 11:01:51;;;;;;;;;;;2.30;99.90;;;;;;5011609;28;206340;-69
2022/12/04 11:04:22;;;;;;;;;;;2.30;99.90;;;;;;4985778;28;20329;-70
2022/12/04 11:06:51;;;;;;;;;;;2.30;99.90;;;;;;4988339;28;197001;-69
2022/12/04 11:09:22;;;;;;;;;;;2.40;99.90;;;;;;5037237;28;207082;-70
2022/12/04 11:11:48;;;;;;;;;;;2.40;99.90;;;;;;5003492;28;210561;-70
2022/12/04 11:14:16;;;;;;;;;;;2.40;99.90;;;;;;5038692;28;19921;-70
2022/12/04 11:16:44;;;;;;;;;;;2.40;99.90;;;;;;5011266;28;137903;-70
2022/12/04 11:19:20;;;;;;;;;;;2.50;99.90;;;;;;4994253;28;19931;-70
2022/12/04 11:21:46;;;;;;;;;;;2.40;99.90;;;;;;5025902;28;159185;-70
2022/12/04 11:24:18;;;;;;;;;;;2.50;99.90;;;;;;5013536;28;20338;-71
2022/12/04 11:26:45;;;;;;;;;;;2.40;99.90;;;;;;5023851;28;215583;-70
2022/12/04 11:29:13;;;;;;;;;;;2.40;99.90;;;;;;5022403;28;19959;-70
2022/12/04 11:31:39;;;;;;;;;;;2.40;99.90;;;;;;5031926;28;229949;-70
2022/12/04 11:34:14;;;;;;;;;;;2.40;99.90;;;;;;5013341;28;186696;-70
2022/12/04 11:36:40;;;;;;;;;;;2.40;99.90;;;;;;5080857;27;209110;-70
2022/12/04 11:39:15;;;;;;;;;;;2.40;99.90;;;;;;5014606;28;102899;-70
2022/12/04 11:41:41;;;;;;;;;;;2.40;99.90;;;;;;5077607;28;211904;-70
2022/12/04 11:44:25;;;;;;;;;;;2.40;99.90;;;;;;5024907;28;94930;-70
2022/12/04 11:46:52;;;;;;;;;;;2.40;99.90;;;;;;4994390;27;223844;-70
2022/12/04 11:49:22;;;;;;;;;;;2.40;99.90;;;;;;5058565;28;19924;-70
2022/12/04 11:51:48;;;;;;;;;;;2.40;99.90;;;;;;5015526;27;209961;-70
2022/12/04 11:54:23;;;;;;;;;;;2.40;99.90;;;;;;5051769;28;20501;-70
2022/12/04 11:57:08;;;;;;;;;;;2.40;99.90;;;;;;5045817;27;214190;-70
2022/12/04 11:59:53;;;;;;;;;;;2.40;99.90;;;;;;5062468;28;19920;-70
2022/12/04 12:02:29;;;;;;;;;;;2.40;99.90;;;;;;5018744;28;212130;-70
2022/12/04 12:05:15;;;;;;;;;;;2.40;99.90;;;;;;5090217;28;19947;-70
2022/12/04 12:07:45;;;;;;;;;;;2.40;99.90;;;;;;5054248;28;125323;-71
2022/12/04 12:10:30;;;;;;;;;;;2.40;99.90;;;;;;5094300;28;19924;-70
2022/12/04 12:12:56;;;;;;;;;;;2.40;99.90;;;;;;5035974;28;109472;-70
2022/12/04 12:15:32;;;;;;;;;;;2.50;99.90;;;;;;5074958;27;20411;-71
2022/12/04 12:17:58;;;;;;;;;;;2.50;99.90;;;;;;5017930;28;136081;-70
2022/12/04 12:20:40;;;;;;;;;;;2.50;99.90;;;;;;5043025;28;19924;-70
2022/12/04 12:23:15;;;;;;;;;;;2.50;99.90;;;;;;5019615;28;213419;-71
2022/12/04 12:25:47;;;;;;;;;;;2.50;99.90;;;;;;5055092;28;19947;-71
2022/12/04 12:28:22;;;;;;;;;;;2.50;99.90;;;;;;5011896;28;207971;-69
2022/12/04 12:30:48;;;;;;;;;;;2.50;99.90;;;;;;5056719;28;19932;-69
2022/12/04 12:33:14;;;;;;;;;;;2.50;99.90;;;;;;4996189;28;126377;-70
2022/12/04 12:35:57;;;;;;;;;;;2.60;99.90;;;;;;5051705;28;20497;-71
2022/12/04 12:38:52;;;;;;;;;;;2.60;99.90;;;;;;5001041;28;176214;-71
2022/12/04 12:41:34;;;;;;;;;;;2.60;99.90;;;;;;5044731;28;20015;-72
2022/12/04 12:44:06;;;;;;;;;;;2.60;99.90;;;;;;5022151;28;210173;-70
2022/12/04 12:46:32;;;;;;;;;;;2.60;99.90;;;;;;5062603;28;19933;-71
2022/12/04 12:49:03;;;;;;;;;;;2.60;99.90;;;;;;5010453;28;207968;-70
2022/12/04 12:51:40;;;;;;;;;;;2.60;99.90;;;;;;5089841;28;20309;-71
2022/12/04 12:54:25;;;;;;;;;;;2.70;99.90;;;;;;4968574;28;208669;-70
2022/12/04 12:56:56;;;;;;;;;;;2.60;99.90;;;;;;5045152;27;211104;-70
2022/12/04 12:59:24;;;;;;;;;;;2.70;99.90;;;;;;5061524;28;19940;-71
2022/12/04 13:01:50;;;;;;;;;;;2.70;99.90;;;;;;5040923;27;207781;-70
2022/12/04 13:04:22;;;;;;;;;;;2.70;99.90;;;;;;5044850;28;19925;-70
2022/12/04 13:06:51;;;;;;;;;;;2.70;99.90;;;;;;5022112;28;209304;-70
2022/12/04 13:09:26;;;;;;;;;;;2.70;99.90;;;;;;5060651;28;20317;-70
2022/12/04 13:11:58;;;;;;;;;;;2.70;99.90;;;;;;5007228;28;211244;-71
2022/12/04 13:14:24;;;;;;;;;;;2.70;99.90;;;;;;5067301;28;19995;-70
2022/12/04 13:16:52;;;;;;;;;;;2.70;99.90;;;;;;5034010;27;212615;-71
2022/12/04 13:19:21;;;;;;;;;;;2.70;99.90;;;;;;5049867;28;19932;-70
2022/12/04 13:22:10;;;;;;;;;;;2.70;99.90;;;;;;5021790;28;207470;-71
2022/12/04 13:24:51;;;;;;;;;;;2.70;99.90;;;;;;5028394;28;19932;-70
2022/12/04 13:27:18;;;;;;;;;;;2.70;99.90;;;;;;5025392;28;212672;-70
2022/12/04 13:29:44;;;;;;;;;;;2.70;99.90;;;;;;5054510;28;20321;-70
2022/12/04 13:32:29;;;;;;;;;;;2.70;99.90;;;;;;5037016;28;215726;-71
2022/12/04 13:35:00;;;;;;;;;;;2.70;99.90;;;;;;5090656;28;19924;-71
2022/12/04 13:37:44;;;;;;;;;;;2.70;99.90;;;;;;5011331;28;158661;-71
2022/12/04 13:40:13;;;;;;;;;;;2.70;99.90;;;;;;5061678;28;19928;-70
2022/12/04 13:42:40;;;;;;;;;;;2.70;99.90;;;;;;5023053;27;207494;-71
2022/12/04 13:45:09;;;;;;;;;;;2.70;99.90;;;;;;5065017;28;19920;-70
2022/12/04 13:47:35;;;;;;;;;;;2.70;99.90;;;;;;5019177;28;105523;-71
2022/12/04 13:50:05;;;;;;;;;;;2.70;99.90;;;;;;5056494;28;19940;-70
2022/12/04 13:52:39;;;;;;;;;;;2.70;99.90;;;;;;5028228;27;160648;-70
2022/12/04 13:55:24;;;;;;;;;;;2.80;99.90;;;;;;5032288;28;19924;-71
2022/12/04 13:57:58;;;;;;;;;;;2.70;99.90;;;;;;5030001;28;180308;-70
2022/12/04 14:00:24;;;;;;;;;;;2.80;99.90;;;;;;5056223;28;20023;-69
2022/12/04 14:02:53;;;;;;;;;;;2.80;99.90;;;;;;4997080;28;91443;-69
2022/12/04 14:05:40;;;;;;;;;;;2.70;99.90;;;;;;5053428;28;20415;-70
2022/12/04 14:08:18;;;;;;;;;;;2.80;99.90;;;;;;5028575;28;178040;-70
2022/12/04 14:10:45;;;;;;;;;;;2.80;99.90;;;;;;5058053;28;20182;-70
2022/12/04 14:13:11;;;;;;;;;;;2.80;99.90;;;;;;5021764;28;162677;-70
2022/12/04 14:15:38;;;;;;;;;;;2.80;99.90;;;;;;5057707;28;20397;-69
2022/12/04 14:18:24;;;;;;;;;;;2.70;99.90;;;;;;5011566;28;218006;-70
2022/12/04 14:20:58;;;;;;;;;;;2.70;99.90;;;;;;5052607;28;19925;-70
2022/12/04 14:23:32;;;;;;;;;;;2.70;99.90;;;;;;5027315;27;188986;-69
2022/12/04 14:25:58;;;;;;;;;;;2.70;99.90;;;;;;5056190;28;19932;-71
2022/12/04 14:28:29;;;;;;;;;;;2.70;99.90;;;;;;4992507;28;166272;-70
2022/12/04 14:31:05;;;;;;;;;;;2.60;99.90;;;;;;5055081;28;19925;-71
2022/12/04 14:33:31;;;;;;;;;;;2.60;99.90;;;;;;4997536;28;157698;-71
2022/12/04 14:36:02;;;;;;;;;;;2.60;99.90;;;;;;5056029;28;19924;-71
2022/12/04 14:38:28;;;;;;;;;;;2.60;99.90;;;;;;5019632;28;188475;-70
2022/12/04 14:40:56;;;;;;;;;;;2.60;99.90;;;;;;5055829;28;19925;-71
2022/12/04 14:43:24;;;;;;;;;;;2.60;99.90;;;;;;5020269;28;202932;-70
2022/12/04 14:46:22;;;;;;;;;;;2.60;99.90;;;;;;5059491;28;19925;-70
2022/12/04 14:49:20;;;;;;;;;;;2.50;99.90;;;;;;4991398;28;88155;-70